sensor_id;sensor_type;location;lat;lon;timestamp;pressure;altitude;pressure_sealevel;temperature;humidity
21182;BME280;10749;46.296;7.524;2023-05-19T00:01:07;95045.28;;;14.42;52.15
21182;BME280;10749;46.296;7.524;2023-05-19T00:03:33;95035.63;;;14.41;52.11
21182;BME280;10749;46.296;7.524;2023-05-19T00:06:01;95034.63;;;14.42;51.90
21182;BME280;10749;46.296;7.524;2023-05-19T00:08:29;95031.53;;;14.39;51.90
21182;BME280;10749;46.296;7.524;2023-05-19T00:10:55;95029.72;;;14.39;52.00
21182;BME280;10749;46.296;7.524;2023-05-19T00:13:21;95029.31;;;14.42;52.10
21182;BME280;10749;46.296;7.524;2023-05-19T00:15:47;95024.38;;;14.39;51.90
21182;BME280;10749;46.296;7.524;2023-05-19T00:18:13;95019.25;;;14.38;52.14
21182;BME280;10749;46.296;7.524;2023-05-19T00:20:40;95018.78;;;14.34;52.31
21182;BME280;10749;46.296;7.524;2023-05-19T00:23:06;95023.69;;;14.30;52.37
21182;BME280;10749;46.296;7.524;2023-05-19T00:25:31;95015.53;;;14.32;52.31
21182;BME280;10749;46.296;7.524;2023-05-19T00:27:56;95015.53;;;14.32;52.28
21182;BME280;10749;46.296;7.524;2023-05-19T00:30:23;95015.53;;;14.32;52.49
21182;BME280;10749;46.296;7.524;2023-05-19T00:32:48;95006.06;;;14.29;52.21
21182;BME280;10749;46.296;7.524;2023-05-19T00:35:14;95018.78;;;14.27;52.61
21182;BME280;10749;46.296;7.524;2023-05-19T00:37:40;95019.38;;;14.23;52.57
21182;BME280;10749;46.296;7.524;2023-05-19T00:40:06;95017.94;;;14.27;52.22
21182;BME280;10749;46.296;7.524;2023-05-19T00:42:31;95013.03;;;14.24;52.61
21182;BME280;10749;46.296;7.524;2023-05-19T00:44:57;95021.03;;;14.24;52.36
21182;BME280;10749;46.296;7.524;2023-05-19T00:47:22;95015.69;;;14.24;52.56
21182;BME280;10749;46.296;7.524;2023-05-19T00:49:47;95016.72;;;14.23;52.87
21182;BME280;10749;46.296;7.524;2023-05-19T00:52:13;95010.38;;;14.24;52.71
21182;BME280;10749;46.296;7.524;2023-05-19T00:54:38;95020.63;;;14.27;52.73
21182;BME280;10749;46.296;7.524;2023-05-19T00:57:04;95010.97;;;14.26;52.91
21182;BME280;10749;46.296;7.524;2023-05-19T00:59:29;95008.53;;;14.24;52.84
21182;BME280;10749;46.296;7.524;2023-05-19T01:01:54;95007.72;;;14.24;52.75
21182;BME280;10749;46.296;7.524;2023-05-19T01:04:20;95013.03;;;14.24;53.03
21182;BME280;10749;46.296;7.524;2023-05-19T01:06:47;95008.13;;;14.27;52.84
21182;BME280;10749;46.296;7.524;2023-05-19T01:09:14;95002.22;;;14.32;52.75
21182;BME280;10749;46.296;7.524;2023-05-19T01:11:39;95005.69;;;14.32;52.50
21182;BME280;10749;46.296;7.524;2023-05-19T01:14:05;95010.19;;;14.32;52.62
21182;BME280;10749;46.296;7.524;2023-05-19T01:27:24;95015.91;;;14.29;52.78
21182;BME280;10749;46.296;7.524;2023-05-19T01:32:53;95015.53;;;14.32;52.83
21182;BME280;10749;46.296;7.524;2023-05-19T01:35:22;95008.16;;;14.34;52.80
21182;BME280;10749;46.296;7.524;2023-05-19T01:37:50;95013.47;;;14.34;53.18
21182;BME280;10749;46.296;7.524;2023-05-19T01:40:17;95007.16;;;14.35;52.84
21182;BME280;10749;46.296;7.524;2023-05-19T01:42:44;95011.47;;;14.36;52.87
21182;BME280;10749;46.296;7.524;2023-05-19T01:45:11;95010.66;;;14.42;52.84
21182;BME280;10749;46.296;7.524;2023-05-19T01:47:41;95006.34;;;14.41;52.98
21182;BME280;10749;46.296;7.524;2023-05-19T01:50:07;95000.00;;;14.42;52.85
21182;BME280;10749;46.296;7.524;2023-05-19T01:52:33;95007.00;;;14.43;53.11
21182;BME280;10749;46.296;7.524;2023-05-19T01:54:58;95001.44;;;14.38;53.16
21182;BME280;10749;46.296;7.524;2023-05-19T02:00:10;94998.91;;;14.30;53.35
21182;BME280;10749;46.296;7.524;2023-05-19T02:05:44;94996.66;;;14.27;53.53
21182;BME280;10749;46.296;7.524;2023-05-19T02:08:19;94994.00;;;14.27;53.21
21182;BME280;10749;46.296;7.524;2023-05-19T02:10:54;94998.25;;;14.21;53.33
21182;BME280;10749;46.296;7.524;2023-05-19T02:13:23;94997.06;;;14.24;53.54
21182;BME280;10749;46.296;7.524;2023-05-19T02:15:54;94992.94;;;14.21;53.57
21182;BME280;10749;46.296;7.524;2023-05-19T02:18:21;94984.13;;;14.21;53.77
21182;BME280;10749;46.296;7.524;2023-05-19T02:20:49;94990.50;;;14.20;53.55
21182;BME280;10749;46.296;7.524;2023-05-19T02:23:14;94988.84;;;14.19;53.81
21182;BME280;10749;46.296;7.524;2023-05-19T02:25:39;94981.03;;;14.17;53.97
21182;BME280;10749;46.296;7.524;2023-05-19T02:28:05;94986.97;;;14.13;53.80
21182;BME280;10749;46.296;7.524;2023-05-19T02:30:30;94986.59;;;14.16;53.67
21182;BME280;10749;46.296;7.524;2023-05-19T02:32:56;94984.94;;;14.15;53.56
21182;BME280;10749;46.296;7.524;2023-05-19T02:35:21;94980.63;;;14.14;53.73
21182;BME280;10749;46.296;7.524;2023-05-19T02:37:46;94982.69;;;14.12;53.62
21182;BME280;10749;46.296;7.524;2023-05-19T02:40:11;94979.38;;;14.10;53.97
21182;BME280;10749;46.296;7.524;2023-05-19T02:42:37;94974.44;;;14.07;53.74
21182;BME280;10749;46.296;7.524;2023-05-19T02:45:02;94971.97;;;14.05;53.75
21182;BME280;10749;46.296;7.524;2023-05-19T02:47:28;94969.53;;;14.04;53.87
21182;BME280;10749;46.296;7.524;2023-05-19T02:49:53;94968.72;;;14.03;54.04
21182;BME280;10749;46.296;7.524;2023-05-19T02:52:18;94963.38;;;14.03;53.95
21182;BME280;10749;46.296;7.524;2023-05-19T02:54:44;94966.22;;;14.02;53.97
21182;BME280;10749;46.296;7.524;2023-05-19T02:57:09;94960.50;;;13.98;54.28
21182;BME280;10749;46.296;7.524;2023-05-19T02:59:35;94966.00;;;13.97;54.02
21182;BME280;10749;46.296;7.524;2023-05-19T03:02:01;94970.50;;;13.96;54.49
21182;BME280;10749;46.296;7.524;2023-05-19T03:04:27;94972.34;;;13.96;54.28
21182;BME280;10749;46.296;7.524;2023-05-19T03:06:53;94958.66;;;13.99;54.22
21182;BME280;10749;46.296;7.524;2023-05-19T03:09:19;94962.75;;;14.01;54.06
21182;BME280;10749;46.296;7.524;2023-05-19T03:11:44;94964.59;;;14.01;54.48
21182;BME280;10749;46.296;7.524;2023-05-19T03:14:09;94957.63;;;14.00;54.45
21182;BME280;10749;46.296;7.524;2023-05-19T03:16:36;94958.00;;;13.97;54.47
21182;BME280;10749;46.296;7.524;2023-05-19T03:19:01;94957.59;;;13.93;54.33
21182;BME280;10749;46.296;7.524;2023-05-19T03:21:26;94958.41;;;13.94;54.50
21182;BME280;10749;46.296;7.524;2023-05-19T03:23:52;94956.38;;;13.96;54.58
21182;BME280;10749;46.296;7.524;2023-05-19T03:26:18;94954.09;;;13.93;54.51
21182;BME280;10749;46.296;7.524;2023-05-19T03:28:44;94951.22;;;13.87;54.48
21182;BME280;10749;46.296;7.524;2023-05-19T03:31:09;94952.84;;;13.88;54.75
21182;BME280;10749;46.296;7.524;2023-05-19T03:33:34;94954.50;;;13.90;54.48
21182;BME280;10749;46.296;7.524;2023-05-19T03:36:00;94953.88;;;13.87;54.68
21182;BME280;10749;46.296;7.524;2023-05-19T03:38:25;94950.19;;;13.88;54.95
21182;BME280;10749;46.296;7.524;2023-05-19T03:40:50;94956.78;;;13.93;54.31
21182;BME280;10749;46.296;7.524;2023-05-19T03:43:15;94952.84;;;13.88;54.13
21182;BME280;10749;46.296;7.524;2023-05-19T03:45:41;94956.34;;;13.89;53.66
21182;BME280;10749;46.296;7.524;2023-05-19T03:48:06;94961.66;;;13.89;54.06
21182;BME280;10749;46.296;7.524;2023-05-19T03:50:32;94958.00;;;13.90;54.07
21182;BME280;10749;46.296;7.524;2023-05-19T03:52:58;94951.03;;;13.89;54.63
21182;BME280;10749;46.296;7.524;2023-05-19T03:55:23;94958.59;;;13.85;54.75
21182;BME280;10749;46.296;7.524;2023-05-19T03:57:50;94955.50;;;13.82;54.89
21182;BME280;10749;46.296;7.524;2023-05-19T04:00:17;94952.63;;;13.83;54.98
21182;BME280;10749;46.296;7.524;2023-05-19T04:02:42;94955.06;;;13.78;55.05
21182;BME280;10749;46.296;7.524;2023-05-19T04:05:07;94961.41;;;13.77;55.32
21182;BME280;10749;46.296;7.524;2023-05-19T04:07:33;94962.84;;;13.80;55.28
21182;BME280;10749;46.296;7.524;2023-05-19T04:09:58;94951.38;;;13.79;55.20
21182;BME280;10749;46.296;7.524;2023-05-19T04:12:24;94963.66;;;13.80;55.25
21182;BME280;10749;46.296;7.524;2023-05-19T04:14:49;94968.38;;;13.78;55.20
21182;BME280;10749;46.296;7.524;2023-05-19T04:17:14;94963.84;;;13.79;55.26
21182;BME280;10749;46.296;7.524;2023-05-19T04:19:39;94971.41;;;13.75;55.37
21182;BME280;10749;46.296;7.524;2023-05-19T04:22:05;94968.13;;;13.73;55.62
21182;BME280;10749;46.296;7.524;2023-05-19T04:24:30;94970.78;;;13.73;55.71
21182;BME280;10749;46.296;7.524;2023-05-19T04:26:57;94971.63;;;13.74;55.82
21182;BME280;10749;46.296;7.524;2023-05-19T04:29:27;94973.22;;;13.68;56.01
21182;BME280;10749;46.296;7.524;2023-05-19T04:31:53;94975.03;;;13.68;56.24
21182;BME280;10749;46.296;7.524;2023-05-19T04:34:19;94973.22;;;13.68;56.56
21182;BME280;10749;46.296;7.524;2023-05-19T04:36:44;94975.03;;;13.61;56.94
21182;BME280;10749;46.296;7.524;2023-05-19T04:39:09;94978.28;;;13.63;56.91
21182;BME280;10749;46.296;7.524;2023-05-19T04:41:36;94977.53;;;13.69;56.81
21182;BME280;10749;46.296;7.524;2023-05-19T04:44:05;94978.13;;;13.71;56.72
21182;BME280;10749;46.296;7.524;2023-05-19T04:46:31;94978.78;;;13.73;56.74
21182;BME280;10749;46.296;7.524;2023-05-19T04:48:56;94980.44;;;13.74;56.60
21182;BME280;10749;46.296;7.524;2023-05-19T04:51:22;94983.03;;;13.68;57.00
21182;BME280;10749;46.296;7.524;2023-05-19T04:53:53;94978.97;;;13.72;56.67
21182;BME280;10749;46.296;7.524;2023-05-19T04:56:19;94979.19;;;13.77;56.66
21182;BME280;10749;46.296;7.524;2023-05-19T04:58:44;94984.94;;;13.80;56.78
21182;BME280;10749;46.296;7.524;2023-05-19T05:01:09;94986.78;;;13.80;56.89
21182;BME280;10749;46.296;7.524;2023-05-19T05:03:37;94987.44;;;13.82;56.78
21182;BME280;10749;46.296;7.524;2023-05-19T05:06:03;94989.28;;;13.88;57.05
21182;BME280;10749;46.296;7.524;2023-05-19T05:08:28;94988.69;;;13.93;56.79
21182;BME280;10749;46.296;7.524;2023-05-19T05:10:54;94987.25;;;13.90;56.89
21182;BME280;10749;46.296;7.524;2023-05-19T05:13:21;94987.03;;;13.92;56.98
21182;BME280;10749;46.296;7.524;2023-05-19T05:15:47;94977.03;;;13.94;56.78
21182;BME280;10749;46.296;7.524;2023-05-19T05:18:13;94989.13;;;13.96;57.08
21182;BME280;10749;46.296;7.524;2023-05-19T05:20:41;94986.28;;;13.98;56.92
21182;BME280;10749;46.296;7.524;2023-05-19T05:23:06;94987.53;;;14.02;56.70
21182;BME280;10749;46.296;7.524;2023-05-19T05:25:34;94984.47;;;14.05;56.83
21182;BME280;10749;46.296;7.524;2023-05-19T05:27:59;94990.59;;;14.05;57.04
21182;BME280;10749;46.296;7.524;2023-05-19T05:30:29;94990.00;;;14.03;57.06
21182;BME280;10749;46.296;7.524;2023-05-19T05:32:54;94980.97;;;14.04;57.15
21182;BME280;10749;46.296;7.524;2023-05-19T05:35:20;94985.50;;;14.04;57.05
21182;BME280;10749;46.296;7.524;2023-05-19T05:37:47;94978.13;;;14.06;57.14
21182;BME280;10749;46.296;7.524;2023-05-19T05:40:12;94980.38;;;14.09;57.42
21182;BME280;10749;46.296;7.524;2023-05-19T05:42:38;94987.78;;;14.13;57.15
21182;BME280;10749;46.296;7.524;2023-05-19T05:45:04;94989.25;;;14.16;57.42
21182;BME280;10749;46.296;7.524;2023-05-19T05:47:29;94985.53;;;14.17;57.44
21182;BME280;10749;46.296;7.524;2023-05-19T05:49:55;94988.59;;;14.14;57.56
21182;BME280;10749;46.296;7.524;2023-05-19T05:52:21;94986.78;;;14.21;57.35
21182;BME280;10749;46.296;7.524;2023-05-19T05:54:50;94983.09;;;14.22;57.43
21182;BME280;10749;46.296;7.524;2023-05-19T05:57:16;94982.53;;;14.26;57.57
21182;BME280;10749;46.296;7.524;2023-05-19T05:59:41;94985.19;;;14.33;57.03
21182;BME280;10749;46.296;7.524;2023-05-19T06:02:09;94984.84;;;14.36;57.26
21182;BME280;10749;46.296;7.524;2023-05-19T06:04:35;94983.19;;;14.35;57.55
21182;BME280;10749;46.296;7.524;2023-05-19T06:07:01;94982.34;;;14.28;57.62
21182;BME280;10749;46.296;7.524;2023-05-19T06:09:27;94979.84;;;14.26;57.95
21182;BME280;10749;46.296;7.524;2023-05-19T06:11:54;94984.75;;;14.23;58.21
21182;BME280;10749;46.296;7.524;2023-05-19T06:14:19;94980.63;;;14.20;58.49
21182;BME280;10749;46.296;7.524;2023-05-19T06:16:45;94988.78;;;14.12;58.74
21182;BME280;10749;46.296;7.524;2023-05-19T06:19:12;94976.53;;;14.18;58.63
21182;BME280;10749;46.296;7.524;2023-05-19T06:21:37;94986.59;;;14.16;58.28
21182;BME280;10749;46.296;7.524;2023-05-19T06:24:02;94983.47;;;14.12;58.44
21182;BME280;10749;46.296;7.524;2023-05-19T06:26:28;94992.50;;;14.18;58.13
21182;BME280;10749;46.296;7.524;2023-05-19T06:28:53;94986.59;;;14.22;58.48
21182;BME280;10749;46.296;7.524;2023-05-19T06:31:18;94983.94;;;14.22;58.55
21182;BME280;10749;46.296;7.524;2023-05-19T06:33:44;94989.69;;;14.26;58.44
21182;BME280;10749;46.296;7.524;2023-05-19T06:36:09;94988.91;;;14.32;58.00
21182;BME280;10749;46.296;7.524;2023-05-19T06:38:34;94985.69;;;14.37;58.23
21182;BME280;10749;46.296;7.524;2023-05-19T06:41:00;94981.38;;;14.36;57.88
21182;BME280;10749;46.296;7.524;2023-05-19T06:43:25;94988.13;;;14.38;57.99
21182;BME280;10749;46.296;7.524;2023-05-19T06:45:50;94986.47;;;14.37;58.03
21182;BME280;10749;46.296;7.524;2023-05-19T06:48:16;94986.09;;;14.47;57.22
21182;BME280;10749;46.296;7.524;2023-05-19T06:50:41;94982.84;;;14.45;57.80
21182;BME280;10749;46.296;7.524;2023-05-19T06:53:06;94983.25;;;14.48;58.14
21182;BME280;10749;46.296;7.524;2023-05-19T06:55:32;94978.34;;;14.52;58.59
21182;BME280;10749;46.296;7.524;2023-05-19T06:57:57;94982.66;;;14.59;58.47
21182;BME280;10749;46.296;7.524;2023-05-19T07:00:22;94985.78;;;14.69;58.60
21182;BME280;10749;46.296;7.524;2023-05-19T07:02:47;94977.78;;;14.76;58.53
21182;BME280;10749;46.296;7.524;2023-05-19T07:05:13;94980.25;;;14.84;58.47
21182;BME280;10749;46.296;7.524;2023-05-19T07:07:38;94969.22;;;14.94;58.47
21182;BME280;10749;46.296;7.524;2023-05-19T07:10:04;94976.00;;;15.03;58.72
21182;BME280;10749;46.296;7.524;2023-05-19T07:12:29;94981.31;;;15.09;58.87
21182;BME280;10749;46.296;7.524;2023-05-19T07:14:54;94979.06;;;15.13;58.83
21182;BME280;10749;46.296;7.524;2023-05-19T07:17:20;94972.28;;;15.04;58.90
21182;BME280;10749;46.296;7.524;2023-05-19T07:19:45;94978.47;;;15.11;58.45
21182;BME280;10749;46.296;7.524;2023-05-19T07:22:10;94969.00;;;15.08;58.61
21182;BME280;10749;46.296;7.524;2023-05-19T07:24:35;94968.00;;;15.16;58.55
21182;BME280;10749;46.296;7.524;2023-05-19T07:27:01;94964.91;;;15.06;58.72
21182;BME280;10749;46.296;7.524;2023-05-19T07:29:26;94970.06;;;15.14;58.66
21182;BME280;10749;46.296;7.524;2023-05-19T07:31:51;94959.19;;;15.22;58.72
21182;BME280;10749;46.296;7.524;2023-05-19T07:34:21;94963.91;;;15.13;58.56
21182;BME280;10749;46.296;7.524;2023-05-19T07:36:47;94962.69;;;15.22;58.77
21182;BME280;10749;46.296;7.524;2023-05-19T07:39:12;94958.78;;;15.38;57.84
21182;BME280;10749;46.296;7.524;2023-05-19T07:41:37;94962.06;;;15.40;58.09
21182;BME280;10749;46.296;7.524;2023-05-19T07:44:03;94957.13;;;15.37;58.12
21182;BME280;10749;46.296;7.524;2023-05-19T07:46:32;94952.63;;;15.57;58.00
21182;BME280;10749;46.296;7.524;2023-05-19T07:48:57;94954.84;;;15.74;57.88
21182;BME280;10749;46.296;7.524;2023-05-19T07:51:22;94950.75;;;15.78;57.28
21182;BME280;10749;46.296;7.524;2023-05-19T07:53:48;94950.09;;;15.82;57.49
21182;BME280;10749;46.296;7.524;2023-05-19T07:56:13;94954.19;;;15.98;58.04
21182;BME280;10749;46.296;7.524;2023-05-19T07:58:38;94955.81;;;16.05;57.86
21182;BME280;10749;46.296;7.524;2023-05-19T08:01:03;94940.00;;;16.04;58.09
21182;BME280;10749;46.296;7.524;2023-05-19T08:03:29;94943.44;;;16.11;58.06
21182;BME280;10749;46.296;7.524;2023-05-19T08:05:54;94936.44;;;16.23;56.65
21182;BME280;10749;46.296;7.524;2023-05-19T08:08:20;94930.69;;;16.20;56.87
21182;BME280;10749;46.296;7.524;2023-05-19T08:10:45;94932.31;;;16.27;57.56
21182;BME280;10749;46.296;7.524;2023-05-19T08:13:11;94930.19;;;16.36;57.52
21182;BME280;10749;46.296;7.524;2023-05-19T08:15:36;94924.16;;;16.53;56.97
21182;BME280;10749;46.296;7.524;2023-05-19T08:18:02;94917.13;;;16.66;57.29
21182;BME280;10749;46.296;7.524;2023-05-19T08:20:29;94920.97;;;16.76;56.99
21182;BME280;10749;46.296;7.524;2023-05-19T08:22:54;94914.81;;;16.76;56.75
21182;BME280;10749;46.296;7.524;2023-05-19T08:25:20;94904.56;;;16.73;56.83
21182;BME280;10749;46.296;7.524;2023-05-19T08:27:45;94903.84;;;16.84;56.73
21182;BME280;10749;46.296;7.524;2023-05-19T08:30:11;94903.09;;;16.77;56.53
21182;BME280;10749;46.296;7.524;2023-05-19T08:32:36;94899.50;;;16.89;56.50
21182;BME280;10749;46.296;7.524;2023-05-19T08:35:02;94898.53;;;17.08;56.23
21182;BME280;10749;46.296;7.524;2023-05-19T08:37:27;94892.25;;;17.21;56.33
21182;BME280;10749;46.296;7.524;2023-05-19T08:39:52;94896.41;;;17.17;56.03
21182;BME280;10749;46.296;7.524;2023-05-19T08:42:18;94890.59;;;17.20;56.03
21182;BME280;10749;46.296;7.524;2023-05-19T08:44:43;94884.13;;;17.10;55.46
21182;BME280;10749;46.296;7.524;2023-05-19T08:47:08;94885.25;;;17.20;55.42
21182;BME280;10749;46.296;7.524;2023-05-19T08:49:43;94870.41;;;17.24;55.38
21182;BME280;10749;46.296;7.524;2023-05-19T08:52:30;94870.78;;;17.28;55.28
21182;BME280;10749;46.296;7.524;2023-05-19T08:55:25;94869.53;;;17.30;55.65
21182;BME280;10749;46.296;7.524;2023-05-19T08:57:52;94859.75;;;17.42;55.70
21182;BME280;10749;46.296;7.524;2023-05-19T09:00:18;94863.63;;;17.46;55.33
21182;BME280;10749;46.296;7.524;2023-05-19T09:02:47;94855.25;;;17.61;54.97
21182;BME280;10749;46.296;7.524;2023-05-19T09:05:14;94847.16;;;17.68;54.91
21182;BME280;10749;46.296;7.524;2023-05-19T09:07:42;94848.28;;;17.78;54.90
21182;BME280;10749;46.296;7.524;2023-05-19T09:10:07;94838.84;;;17.76;54.79
21182;BME280;10749;46.296;7.524;2023-05-19T09:12:33;94835.56;;;17.92;54.73
21182;BME280;10749;46.296;7.524;2023-05-19T09:14:59;94835.00;;;18.02;54.73
21182;BME280;10749;46.296;7.524;2023-05-19T09:17:25;94827.53;;;17.92;54.54
21182;BME280;10749;46.296;7.524;2023-05-19T09:19:50;94823.66;;;17.88;54.46
21182;BME280;10749;46.296;7.524;2023-05-19T09:22:15;94827.94;;;17.89;54.34
21182;BME280;10749;46.296;7.524;2023-05-19T09:24:43;94820.44;;;17.97;54.28
21182;BME280;10749;46.296;7.524;2023-05-19T09:27:08;94814.66;;;18.01;53.84
21182;BME280;10749;46.296;7.524;2023-05-19T09:29:34;94816.34;;;18.13;53.96
21182;BME280;10749;46.296;7.524;2023-05-19T09:31:59;94819.41;;;18.28;53.99
21182;BME280;10749;46.296;7.524;2023-05-19T09:34:28;94807.59;;;18.48;54.15
21182;BME280;10749;46.296;7.524;2023-05-19T09:36:53;94809.69;;;18.45;53.83
21182;BME280;10749;46.296;7.524;2023-05-19T09:39:20;94802.19;;;18.54;53.76
21182;BME280;10749;46.296;7.524;2023-05-19T09:41:46;94797.63;;;18.55;53.73
21182;BME280;10749;46.296;7.524;2023-05-19T09:44:27;94798.03;;;18.52;53.80
21182;BME280;10749;46.296;7.524;2023-05-19T09:46:54;94792.28;;;18.55;53.74
21182;BME280;10749;46.296;7.524;2023-05-19T09:49:23;94794.03;;;18.72;53.75
21182;BME280;10749;46.296;7.524;2023-05-19T09:51:56;94786.47;;;18.81;53.65
21182;BME280;10749;46.296;7.524;2023-05-19T09:54:23;94776.56;;;18.93;53.52
21182;BME280;10749;46.296;7.524;2023-05-19T09:57:01;94776.81;;;19.03;53.40
21182;BME280;10749;46.296;7.524;2023-05-19T09:59:28;94767.81;;;19.09;53.26
21182;BME280;10749;46.296;7.524;2023-05-19T10:01:55;94765.16;;;19.21;53.25
21182;BME280;10749;46.296;7.524;2023-05-19T10:04:25;94765.72;;;19.34;53.11
21182;BME280;10749;46.296;7.524;2023-05-19T10:06:55;94761.06;;;19.42;52.87
21182;BME280;10749;46.296;7.524;2023-05-19T10:09:25;94760.94;;;19.36;52.52
21182;BME280;10749;46.296;7.524;2023-05-19T10:11:51;94759.41;;;19.52;52.67
21182;BME280;10749;46.296;7.524;2023-05-19T10:14:21;94754.16;;;19.57;52.65
21182;BME280;10749;46.296;7.524;2023-05-19T10:16:49;94756.00;;;19.68;52.29
21182;BME280;10749;46.296;7.524;2023-05-19T10:19:15;94746.56;;;19.66;52.07
21182;BME280;10749;46.296;7.524;2023-05-19T10:21:40;94743.75;;;19.61;52.20
21182;BME280;10749;46.296;7.524;2023-05-19T10:24:06;94736.19;;;19.58;51.60
21182;BME280;10749;46.296;7.524;2023-05-19T10:26:31;94736.88;;;19.65;51.56
21182;BME280;10749;46.296;7.524;2023-05-19T10:28:58;94733.31;;;19.88;51.58
21182;BME280;10749;46.296;7.524;2023-05-19T10:31:24;94730.56;;;19.99;51.43
21182;BME280;10749;46.296;7.524;2023-05-19T10:34:01;94728.16;;;20.14;50.78
21182;BME280;10749;46.296;7.524;2023-05-19T10:36:43;94727.09;;;20.15;50.75
21182;BME280;10749;46.296;7.524;2023-05-19T10:39:21;94727.66;;;20.17;49.94
21182;BME280;10749;46.296;7.524;2023-05-19T10:47:06;94728.16;;;20.59;50.19
21182;BME280;10749;46.296;7.524;2023-05-19T10:49:35;94717.97;;;20.61;49.96
21182;BME280;10749;46.296;7.524;2023-05-19T10:52:01;94713.56;;;20.72;49.04
21182;BME280;10749;46.296;7.524;2023-05-19T10:54:43;94716.16;;;20.67;48.60
21182;BME280;10749;46.296;7.524;2023-05-19T10:57:17;94705.91;;;20.81;48.74
21182;BME280;10749;46.296;7.524;2023-05-19T10:59:44;94719.25;;;20.92;47.98
21182;BME280;10749;46.296;7.524;2023-05-19T11:02:09;94700.34;;;20.87;47.67
21182;BME280;10749;46.296;7.524;2023-05-19T11:05:06;94710.13;;;20.93;47.36
21182;BME280;10749;46.296;7.524;2023-05-19T11:07:31;94700.84;;;20.84;47.86
21182;BME280;10749;46.296;7.524;2023-05-19T11:09:57;94701.97;;;20.88;47.86
21182;BME280;10749;46.296;7.524;2023-05-19T11:12:23;94701.84;;;20.78;46.77
21182;BME280;10749;46.296;7.524;2023-05-19T11:14:52;94699.06;;;20.90;46.73
21182;BME280;10749;46.296;7.524;2023-05-19T11:17:18;94689.19;;;20.95;47.11
21182;BME280;10749;46.296;7.524;2023-05-19T11:19:55;94697.56;;;21.15;47.26
21182;BME280;10749;46.296;7.524;2023-05-19T11:22:25;94690.59;;;21.36;46.86
21182;BME280;10749;46.296;7.524;2023-05-19T11:24:53;94685.44;;;21.35;47.22
21182;BME280;10749;46.296;7.524;2023-05-19T11:29:47;94679.97;;;21.30;47.33
21182;BME280;10749;46.296;7.524;2023-05-19T11:32:13;94680.50;;;21.27;46.93
21182;BME280;10749;46.296;7.524;2023-05-19T11:34:39;94680.41;;;21.22;47.02
21182;BME280;10749;46.296;7.524;2023-05-19T11:37:05;94681.25;;;21.05;46.57
21182;BME280;10749;46.296;7.524;2023-05-19T11:39:31;94673.59;;;21.14;46.78
21182;BME280;10749;46.296;7.524;2023-05-19T11:41:57;94662.47;;;21.10;46.42
21182;BME280;10749;46.296;7.524;2023-05-19T11:44:22;94670.41;;;21.00;45.96
21182;BME280;10749;46.296;7.524;2023-05-19T11:46:47;94667.72;;;21.00;46.35
21182;BME280;10749;46.296;7.524;2023-05-19T11:49:14;94662.47;;;21.10;46.00
21182;BME280;10749;46.296;7.524;2023-05-19T11:51:42;94661.19;;;21.13;46.23
21182;BME280;10749;46.296;7.524;2023-05-19T11:54:09;94664.78;;;21.18;46.18
21182;BME280;10749;46.296;7.524;2023-05-19T11:56:39;94656.72;;;21.02;45.83
21182;BME280;10749;46.296;7.524;2023-05-19T11:59:05;94662.34;;;21.00;45.83
21182;BME280;10749;46.296;7.524;2023-05-19T12:01:31;94657.66;;;20.91;45.72
21182;BME280;10749;46.296;7.524;2023-05-19T12:03:57;94660.56;;;20.89;45.72
21182;BME280;10749;46.296;7.524;2023-05-19T12:06:24;94653.25;;;20.85;45.54
21182;BME280;10749;46.296;7.524;2023-05-19T12:08:50;94655.13;;;20.84;45.53
21182;BME280;10749;46.296;7.524;2023-05-19T12:11:17;94659.94;;;20.82;45.83
21182;BME280;10749;46.296;7.524;2023-05-19T12:13:43;94651.28;;;20.80;45.90
21182;BME280;10749;46.296;7.524;2023-05-19T12:16:08;94659.03;;;20.77;45.88
21182;BME280;10749;46.296;7.524;2023-05-19T12:18:37;94662.38;;;20.67;45.72
21182;BME280;10749;46.296;7.524;2023-05-19T12:21:03;94663.13;;;20.46;45.72
21182;BME280;10749;46.296;7.524;2023-05-19T12:23:29;94668.44;;;20.41;45.85
21182;BME280;10749;46.296;7.524;2023-05-19T12:25:56;94661.59;;;20.33;45.98
21182;BME280;10749;46.296;7.524;2023-05-19T12:28:22;94659.03;;;20.26;45.92
21182;BME280;10749;46.296;7.524;2023-05-19T12:30:51;94656.50;;;20.03;45.69
21182;BME280;10749;46.296;7.524;2023-05-19T12:33:18;94659.56;;;19.95;45.85
21182;BME280;10749;46.296;7.524;2023-05-19T12:35:44;94649.28;;;19.92;45.91
21182;BME280;10749;46.296;7.524;2023-05-19T12:38:13;94656.22;;;19.88;46.12
21182;BME280;10749;46.296;7.524;2023-05-19T12:40:38;94659.06;;;19.81;45.96
21182;BME280;10749;46.296;7.524;2023-05-19T12:43:04;94670.91;;;19.69;45.87
21182;BME280;10749;46.296;7.524;2023-05-19T12:45:35;94663.44;;;19.71;45.94
21182;BME280;10749;46.296;7.524;2023-05-19T12:48:10;94672.03;;;19.73;46.19
21182;BME280;10749;46.296;7.524;2023-05-19T12:50:36;94669.75;;;19.65;46.39
21182;BME280;10749;46.296;7.524;2023-05-19T12:53:02;94670.91;;;19.69;46.12
21182;BME280;10749;46.296;7.524;2023-05-19T12:55:28;94665.72;;;19.79;46.38
21182;BME280;10749;46.296;7.524;2023-05-19T12:57:53;94670.72;;;19.87;46.40
21182;BME280;10749;46.296;7.524;2023-05-19T13:00:22;94669.84;;;19.98;46.14
21182;BME280;10749;46.296;7.524;2023-05-19T13:02:59;94657.66;;;20.07;46.37
21182;BME280;10749;46.296;7.524;2023-05-19T13:05:26;94659.59;;;20.12;46.28
21182;BME280;10749;46.296;7.524;2023-05-19T13:07:58;94657.72;;;20.12;46.06
21182;BME280;10749;46.296;7.524;2023-05-19T13:10:25;94659.66;;;20.00;45.73
21182;BME280;10749;46.296;7.524;2023-05-19T13:12:54;94662.06;;;19.85;45.65
21182;BME280;10749;46.296;7.524;2023-05-19T13:15:21;94661.13;;;19.91;45.30
21182;BME280;10749;46.296;7.524;2023-05-19T13:17:48;94663.31;;;19.94;45.69
21182;BME280;10749;46.296;7.524;2023-05-19T13:20:13;94669.00;;;19.98;45.33
21182;BME280;10749;46.296;7.524;2023-05-19T13:22:39;94662.28;;;19.95;45.50
21182;BME280;10749;46.296;7.524;2023-05-19T13:25:04;94668.53;;;20.01;45.31